AirNav  
 
 1347 users online  

34LL IL Department of Corrections/Lawrence County Heliport
Sumner, Illinois, USA

GOING TO SUMNER?


FAA INFORMATION EFFECTIVE 25 MARCH 2021

Location

FAA Identifier: 34LL
Lat/Long: 38-43-42.0000N 087-54-29.0000W
38-43.700000N 087-54.483333W
38.7283333,-87.9080556
(estimated)
Elevation: 490 ft. / 149 m (estimated)
Variation: 02W (2000)
From city: 3 miles W of SUMNER, IL
Time zone: UTC -5 (UTC -6 during Standard Time)
Zip code: 62466

Heliport Operations

Heliport use: Private use. Permission required prior to landing
Activation date: 02/2001
Control tower: no
ARTCC: INDIANAPOLIS CENTER
FSS: COLUMBIA FLIGHT SERVICE STATION
Attendance: CONTINUOUS
Segmented circle: no

Heliport Communications

WX AWOS-3 at AJG (11 nm SE): 134.900 (618-948-2184)
WX AWOS-3 at OLY (13 nm W): 119.275 (618-393-4416)
WX ASOS at LWV (14 nm E): 118.0 (618-943-5252)

Nearby radio navigation aids

VOR radial/distance  VOR name  Freq  Var
SAMr027/16.8SAMSVILLE VOR/DME116.6003E
BIBr110/29.2BIBLE GROVE VORTAC109.0003E

 
NDB name  Hdg/Dist  Freq  Var  ID
OLNEY090/12.427203WOLY --- .-.. -.--
PALESTINE219/21.239103WPLX .--. .-.. -..-
WAYNE COUNTY049/31.525701WFWC ..-. .-- -.-.

Heliport Services

Runway Information

Helipad H1

Dimensions: 40 x 40 ft. / 12 x 12 m
Surface: concrete
Traffic pattern: leftleft

Heliport Ownership and Management from official FAA records

Ownership: Privately-owned
Owner: IL DEPT OF CORRECTIONS
1301 CONCORDIA COURT
SPRINGFIELD, IL 62794-9277
Phone 217-522-2666
Manager: WARDEN
DEPT OF CORRECT. 10940 LAWERENCE RD
SUMNER, IL 62466
Phone 618-936-2064
ADDNL CTC - WARDEN - 10940 LAWRENCE RD SUMNER, IL 62466 - 618-936-2064 - STEPHEN.DUNCAN@DOC.ILLINOIS.GOV

Additional Remarks

FOR CD CTC EVANSVILLE APCH AT 812-436-4690, WHEN APCH CLSD CTC INDIANAPOLIS ARTCC AT 317-247-2411.

Instrument Procedures

There are no published instrument procedures at 34LL.

Some nearby airports with instrument procedures:

KAJG - Mount Carmel Municipal Airport (11 nm SE)
KOLY - Olney-Noble Airport (13 nm W)
KLWV - Lawrenceville-Vincennes International Airport (14 nm E)
KRSV - Crawford County Airport (21 nm NE)
KFOA - Flora Municipal Airport (26 nm W)
 
Loc | Ops | Rwys | IFR | FBO | Links
Com | Nav | Svcs | Stats | Notes
Area around 34LL (IL Department of Corrections/Lawrence County Heliport)
 
Road maps at: MapQuest Bing Google
 
Aerial photo
No photo
 
Sectional chart

 
Airport distance calculator
Flying to IL Department of Corrections/Lawrence County Heliport? Find the distance to fly.

From to 34LL

Sunrise and sunset
Times for 12-Apr-2021
 Local
(UTC-5)
 Zulu
(UTC)
Morning civil twilight05:5310:53
Sunrise06:2111:21
Sunset19:2400:24
Evening civil twilight19:5200:52

Current date and time
Zulu (UTC)  12-Apr-2021 22:05:45
Local (UTC-5)  12-Apr-2021 17:05:45
 
METAR
KAJG 
11nm SE 
122155Z AUTO 32007KT 10SM CLR 20/06 A2990 RMK AO2 T02040056
KOLY 
13nm W 
122155Z AUTO 32011KT 10SM CLR 20/05 A2993 RMK AO2 T01960045
KLWV 
15nm E 
122153Z AUTO 31013G18KT 10SM CLR 21/08 A2990 RMK AO2 SLP126 T02060078
KRSV 
21nm NE 
122155Z AUTO 32014KT 10SM CLR 19/06 A2991 RMK AO2 P0001 T01850064
TAF
KEVV 
45nm SE 
121722Z 1218/1318 32008G15KT P6SM FEW250 FM130000 32004KT P6SM BKN250 FM130300 33003KT P6SM SCT060 BKN150 FM131000 34004KT P6SM VCSH SCT030 OVC060 FM131500 34006KT 5SM -SHRA OVC030
NOTAMs
Click for the latest NOTAMs
NOTAMs are issued by the DoD/FAA and will open in a separate window not controlled by AirNav.

 

 
 

Would you like to see your business listed on this page?

 If your business provides an interesting product or service to pilots, flight crews, aircraft, or users of the IL Department of Corrections/Lawrence County Heliport, you should consider listing it here.  To start the listing process, click on the button below
 
Add a business
 

Other Pages about IL Department of Corrections/Lawrence County Heliport

Update a link
 
Copyright © AirNav, LLC. All rights reserved. Privacy Policy  Contact